sensor_id;sensor_type;location;lat;lon;timestamp;P1;durP1;ratioP1;P2;durP2;ratioP2
77280;SDS011;66339;47.262;17.144;2023-09-12T00:27:49;9.20;;;6.43;;
77280;SDS011;66339;47.262;17.144;2023-09-12T00:36:33;8.25;;;6.15;;
77280;SDS011;66339;47.262;17.144;2023-09-12T02:09:42;8.25;;;5.90;;
77280;SDS011;66339;47.262;17.144;2023-09-12T02:18:29;10.15;;;6.75;;
77280;SDS011;66339;47.262;17.144;2023-09-12T02:21:00;7.05;;;6.07;;
77280;SDS011;66339;47.262;17.144;2023-09-12T02:29:09;10.10;;;6.68;;
77280;SDS011;66339;47.262;17.144;2023-09-12T02:31:36;7.12;;;6.10;;
77280;SDS011;66339;47.262;17.144;2023-09-12T02:36:51;7.65;;;5.87;;
77280;SDS011;66339;47.262;17.144;2023-09-12T02:42:12;6.93;;;6.18;;
77280;SDS011;66339;47.262;17.144;2023-09-12T02:44:42;7.20;;;6.03;;
77280;SDS011;66339;47.262;17.144;2023-09-12T02:47:09;9.95;;;6.30;;
77280;SDS011;66339;47.262;17.144;2023-09-12T02:52:24;8.75;;;6.10;;
77280;SDS011;66339;47.262;17.144;2023-09-12T02:54:53;8.35;;;6.50;;
77280;SDS011;66339;47.262;17.144;2023-09-12T03:00:26;8.20;;;5.93;;
77280;SDS011;66339;47.262;17.144;2023-09-12T03:02:55;9.43;;;6.20;;
77280;SDS011;66339;47.262;17.144;2023-09-12T03:05:28;8.68;;;6.15;;
77280;SDS011;66339;47.262;17.144;2023-09-12T03:07:59;8.70;;;6.53;;
77280;SDS011;66339;47.262;17.144;2023-09-12T03:10:28;9.38;;;6.62;;
77280;SDS011;66339;47.262;17.144;2023-09-12T03:12:58;8.48;;;6.62;;
77280;SDS011;66339;47.262;17.144;2023-09-12T03:15:31;8.40;;;6.62;;
77280;SDS011;66339;47.262;17.144;2023-09-12T03:18:07;7.82;;;6.28;;
77280;SDS011;66339;47.262;17.144;2023-09-12T03:20:42;7.65;;;6.47;;
77280;SDS011;66339;47.262;17.144;2023-09-12T03:23:11;9.10;;;6.85;;
77280;SDS011;66339;47.262;17.144;2023-09-12T03:25:42;8.02;;;6.55;;
77280;SDS011;66339;47.262;17.144;2023-09-12T03:28:10;6.78;;;5.97;;
77280;SDS011;66339;47.262;17.144;2023-09-12T03:30:42;7.10;;;6.20;;
77280;SDS011;66339;47.262;17.144;2023-09-12T03:35:52;9.48;;;6.50;;
77280;SDS011;66339;47.262;17.144;2023-09-12T03:38:19;8.18;;;6.80;;
77280;SDS011;66339;47.262;17.144;2023-09-12T03:40:48;9.10;;;6.12;;
77280;SDS011;66339;47.262;17.144;2023-09-12T03:46:30;7.30;;;6.33;;
77280;SDS011;66339;47.262;17.144;2023-09-12T03:52:09;8.73;;;6.60;;
77280;SDS011;66339;47.262;17.144;2023-09-12T03:57:25;7.72;;;6.30;;
77280;SDS011;66339;47.262;17.144;2023-09-12T03:59:55;8.27;;;6.32;;
77280;SDS011;66339;47.262;17.144;2023-09-12T04:02:25;7.87;;;6.50;;
77280;SDS011;66339;47.262;17.144;2023-09-12T04:07:29;10.80;;;6.25;;
77280;SDS011;66339;47.262;17.144;2023-09-12T04:12:49;8.50;;;6.70;;
77280;SDS011;66339;47.262;17.144;2023-09-12T04:15:16;8.98;;;6.50;;
77280;SDS011;66339;47.262;17.144;2023-09-12T04:17:43;8.10;;;6.30;;
77280;SDS011;66339;47.262;17.144;2023-09-12T04:23:34;7.62;;;6.55;;
77280;SDS011;66339;47.262;17.144;2023-09-12T04:26:01;8.90;;;6.97;;
77280;SDS011;66339;47.262;17.144;2023-09-12T04:28:28;8.55;;;6.30;;
77280;SDS011;66339;47.262;17.144;2023-09-12T04:31:03;8.30;;;6.50;;
77280;SDS011;66339;47.262;17.144;2023-09-12T04:33:35;8.35;;;6.45;;
77280;SDS011;66339;47.262;17.144;2023-09-12T04:36:09;9.48;;;6.57;;
77280;SDS011;66339;47.262;17.144;2023-09-12T04:38:40;9.68;;;6.28;;
77280;SDS011;66339;47.262;17.144;2023-09-12T04:41:07;9.15;;;7.07;;
77280;SDS011;66339;47.262;17.144;2023-09-12T04:43:34;7.43;;;6.55;;
77280;SDS011;66339;47.262;17.144;2023-09-12T04:46:02;8.82;;;6.68;;
77280;SDS011;66339;47.262;17.144;2023-09-12T04:48:33;8.45;;;6.22;;
77280;SDS011;66339;47.262;17.144;2023-09-12T04:51:04;9.32;;;6.65;;
77280;SDS011;66339;47.262;17.144;2023-09-12T04:53:35;7.87;;;6.50;;
77280;SDS011;66339;47.262;17.144;2023-09-12T04:56:09;8.40;;;6.37;;
77280;SDS011;66339;47.262;17.144;2023-09-12T04:58:37;9.55;;;7.22;;
77280;SDS011;66339;47.262;17.144;2023-09-12T05:01:04;8.63;;;6.53;;
77280;SDS011;66339;47.262;17.144;2023-09-12T05:03:35;10.77;;;6.60;;
77280;SDS011;66339;47.262;17.144;2023-09-12T05:08:38;11.45;;;7.30;;
77280;SDS011;66339;47.262;17.144;2023-09-12T05:11:11;10.43;;;6.95;;
77280;SDS011;66339;47.262;17.144;2023-09-12T05:13:39;9.43;;;7.18;;
77280;SDS011;66339;47.262;17.144;2023-09-12T05:16:07;11.55;;;8.07;;
77280;SDS011;66339;47.262;17.144;2023-09-12T05:18:38;14.23;;;7.93;;
77280;SDS011;66339;47.262;17.144;2023-09-12T05:21:09;11.90;;;8.70;;
77280;SDS011;66339;47.262;17.144;2023-09-12T05:23:36;13.45;;;7.68;;
77280;SDS011;66339;47.262;17.144;2023-09-12T05:26:09;12.57;;;8.27;;
77280;SDS011;66339;47.262;17.144;2023-09-12T05:28:40;12.90;;;8.35;;
77280;SDS011;66339;47.262;17.144;2023-09-12T05:31:10;11.45;;;8.27;;
77280;SDS011;66339;47.262;17.144;2023-09-12T05:33:41;12.80;;;7.97;;
77280;SDS011;66339;47.262;17.144;2023-09-12T05:36:08;11.10;;;8.00;;
77280;SDS011;66339;47.262;17.144;2023-09-12T05:38:38;14.27;;;7.53;;
77280;SDS011;66339;47.262;17.144;2023-09-12T05:41:09;13.70;;;7.87;;
77280;SDS011;66339;47.262;17.144;2023-09-12T05:43:37;13.77;;;7.87;;
77280;SDS011;66339;47.262;17.144;2023-09-12T05:46:04;11.32;;;8.00;;
77280;SDS011;66339;47.262;17.144;2023-09-12T05:48:31;13.35;;;7.62;;
77280;SDS011;66339;47.262;17.144;2023-09-12T05:51:06;9.70;;;7.82;;
77280;SDS011;66339;47.262;17.144;2023-09-12T05:53:33;11.48;;;7.97;;
77280;SDS011;66339;47.262;17.144;2023-09-12T05:56:01;15.85;;;8.27;;
77280;SDS011;66339;47.262;17.144;2023-09-12T05:58:29;10.50;;;8.05;;
77280;SDS011;66339;47.262;17.144;2023-09-12T06:00:59;10.40;;;8.25;;
77280;SDS011;66339;47.262;17.144;2023-09-12T06:03:27;12.75;;;8.48;;
77280;SDS011;66339;47.262;17.144;2023-09-12T06:06:01;10.85;;;7.90;;
77280;SDS011;66339;47.262;17.144;2023-09-12T06:08:32;15.43;;;9.20;;
77280;SDS011;66339;47.262;17.144;2023-09-12T06:10:59;12.85;;;8.25;;
77280;SDS011;66339;47.262;17.144;2023-09-12T06:13:29;16.17;;;8.60;;
77280;SDS011;66339;47.262;17.144;2023-09-12T06:16:00;11.95;;;8.55;;
77280;SDS011;66339;47.262;17.144;2023-09-12T06:18:27;12.60;;;8.50;;
77280;SDS011;66339;47.262;17.144;2023-09-12T06:21:03;12.32;;;8.85;;
77280;SDS011;66339;47.262;17.144;2023-09-12T06:23:31;11.52;;;7.93;;
77280;SDS011;66339;47.262;17.144;2023-09-12T06:25:59;12.82;;;8.25;;
77280;SDS011;66339;47.262;17.144;2023-09-12T06:28:26;15.55;;;7.93;;
77280;SDS011;66339;47.262;17.144;2023-09-12T06:30:55;11.07;;;7.80;;
77280;SDS011;66339;47.262;17.144;2023-09-12T06:33:24;11.85;;;8.05;;
77280;SDS011;66339;47.262;17.144;2023-09-12T06:35:52;11.88;;;8.27;;
77280;SDS011;66339;47.262;17.144;2023-09-12T06:38:21;11.77;;;8.23;;
77280;SDS011;66339;47.262;17.144;2023-09-12T06:40:49;10.60;;;7.87;;
77280;SDS011;66339;47.262;17.144;2023-09-12T06:43:16;14.00;;;7.80;;
77280;SDS011;66339;47.262;17.144;2023-09-12T06:45:46;12.65;;;7.87;;
77280;SDS011;66339;47.262;17.144;2023-09-12T06:48:14;9.43;;;7.35;;
77280;SDS011;66339;47.262;17.144;2023-09-12T06:50:41;12.80;;;7.80;;
77280;SDS011;66339;47.262;17.144;2023-09-12T06:53:15;18.17;;;8.02;;
77280;SDS011;66339;47.262;17.144;2023-09-12T06:55:45;11.30;;;7.87;;
77280;SDS011;66339;47.262;17.144;2023-09-12T06:58:13;11.85;;;7.50;;
77280;SDS011;66339;47.262;17.144;2023-09-12T07:00:40;10.68;;;7.87;;
77280;SDS011;66339;47.262;17.144;2023-09-12T07:03:07;15.77;;;7.93;;
77280;SDS011;66339;47.262;17.144;2023-09-12T07:05:35;13.57;;;7.57;;
77280;SDS011;66339;47.262;17.144;2023-09-12T07:08:03;16.65;;;7.40;;
77280;SDS011;66339;47.262;17.144;2023-09-12T07:10:34;12.20;;;7.68;;
77280;SDS011;66339;47.262;17.144;2023-09-12T07:13:02;13.18;;;7.93;;
77280;SDS011;66339;47.262;17.144;2023-09-12T07:15:29;12.88;;;8.05;;
77280;SDS011;66339;47.262;17.144;2023-09-12T07:17:59;11.35;;;7.72;;
77280;SDS011;66339;47.262;17.144;2023-09-12T07:20:27;12.82;;;7.53;;
77280;SDS011;66339;47.262;17.144;2023-09-12T07:22:54;10.20;;;7.55;;
77280;SDS011;66339;47.262;17.144;2023-09-12T07:25:21;10.23;;;7.78;;
77280;SDS011;66339;47.262;17.144;2023-09-12T07:27:55;10.02;;;7.75;;
77280;SDS011;66339;47.262;17.144;2023-09-12T07:30:22;10.90;;;7.43;;
77280;SDS011;66339;47.262;17.144;2023-09-12T07:32:49;11.10;;;7.20;;
77280;SDS011;66339;47.262;17.144;2023-09-12T07:35:16;19.08;;;8.05;;
77280;SDS011;66339;47.262;17.144;2023-09-12T07:37:44;11.23;;;7.95;;
77280;SDS011;66339;47.262;17.144;2023-09-12T07:40:18;10.38;;;7.47;;
77280;SDS011;66339;47.262;17.144;2023-09-12T07:42:46;15.07;;;7.62;;
77280;SDS011;66339;47.262;17.144;2023-09-12T07:45:16;11.52;;;7.68;;
77280;SDS011;66339;47.262;17.144;2023-09-12T07:47:47;13.95;;;7.40;;
77280;SDS011;66339;47.262;17.144;2023-09-12T07:50:18;9.18;;;6.85;;
77280;SDS011;66339;47.262;17.144;2023-09-12T07:52:51;12.68;;;7.25;;
77280;SDS011;66339;47.262;17.144;2023-09-12T07:55:21;11.43;;;7.40;;
77280;SDS011;66339;47.262;17.144;2023-09-12T07:57:57;10.80;;;6.93;;
77280;SDS011;66339;47.262;17.144;2023-09-12T08:00:24;15.88;;;7.50;;
77280;SDS011;66339;47.262;17.144;2023-09-12T08:02:52;12.10;;;7.43;;
77280;SDS011;66339;47.262;17.144;2023-09-12T08:05:21;9.23;;;6.60;;
77280;SDS011;66339;47.262;17.144;2023-09-12T08:07:51;14.60;;;7.32;;
77280;SDS011;66339;47.262;17.144;2023-09-12T08:10:18;8.82;;;6.65;;
77280;SDS011;66339;47.262;17.144;2023-09-12T08:12:46;11.88;;;6.60;;
77280;SDS011;66339;47.262;17.144;2023-09-12T08:15:15;11.63;;;6.72;;
77280;SDS011;66339;47.262;17.144;2023-09-12T08:17:42;10.93;;;7.05;;
77280;SDS011;66339;47.262;17.144;2023-09-12T08:20:15;9.95;;;6.43;;
77280;SDS011;66339;47.262;17.144;2023-09-12T08:22:45;11.93;;;6.80;;
77280;SDS011;66339;47.262;17.144;2023-09-12T08:25:16;10.75;;;6.25;;
77280;SDS011;66339;47.262;17.144;2023-09-12T08:27:49;8.98;;;6.40;;
77280;SDS011;66339;47.262;17.144;2023-09-12T08:30:20;9.10;;;6.55;;
77280;SDS011;66339;47.262;17.144;2023-09-12T08:32:48;10.82;;;6.57;;
77280;SDS011;66339;47.262;17.144;2023-09-12T08:35:22;10.68;;;6.25;;
77280;SDS011;66339;47.262;17.144;2023-09-12T08:37:49;10.70;;;6.10;;
77280;SDS011;66339;47.262;17.144;2023-09-12T08:40:27;9.82;;;6.75;;
77280;SDS011;66339;47.262;17.144;2023-09-12T08:45:23;10.63;;;6.35;;
77280;SDS011;66339;47.262;17.144;2023-09-12T08:47:52;9.95;;;7.07;;
77280;SDS011;66339;47.262;17.144;2023-09-12T08:50:24;10.02;;;6.30;;
77280;SDS011;66339;47.262;17.144;2023-09-12T08:52:54;10.88;;;6.57;;
77280;SDS011;66339;47.262;17.144;2023-09-12T08:55:34;16.17;;;6.57;;
77280;SDS011;66339;47.262;17.144;2023-09-12T08:58:05;7.57;;;6.07;;
77280;SDS011;66339;47.262;17.144;2023-09-12T09:00:39;10.20;;;6.60;;
77280;SDS011;66339;47.262;17.144;2023-09-12T09:03:09;8.25;;;6.07;;
77280;SDS011;66339;47.262;17.144;2023-09-12T09:05:40;9.75;;;6.30;;
77280;SDS011;66339;47.262;17.144;2023-09-12T09:08:19;9.70;;;6.55;;
77280;SDS011;66339;47.262;17.144;2023-09-12T09:10:55;14.60;;;7.12;;
77280;SDS011;66339;47.262;17.144;2023-09-12T09:13:23;10.65;;;6.35;;
77280;SDS011;66339;47.262;17.144;2023-09-12T09:16:36;12.00;;;6.53;;
77280;SDS011;66339;47.262;17.144;2023-09-12T09:21:22;13.05;;;7.05;;
77280;SDS011;66339;47.262;17.144;2023-09-12T09:23:54;8.18;;;5.60;;
77280;SDS011;66339;47.262;17.144;2023-09-12T09:26:22;12.02;;;6.35;;
77280;SDS011;66339;47.262;17.144;2023-09-12T09:29:02;15.55;;;6.18;;
77280;SDS011;66339;47.262;17.144;2023-09-12T09:31:30;8.50;;;6.12;;
77280;SDS011;66339;47.262;17.144;2023-09-12T09:33:58;12.65;;;6.85;;
77280;SDS011;66339;47.262;17.144;2023-09-12T09:36:28;10.55;;;6.18;;
77280;SDS011;66339;47.262;17.144;2023-09-12T09:39:05;13.48;;;6.65;;
77280;SDS011;66339;47.262;17.144;2023-09-12T09:41:47;13.23;;;6.32;;
77280;SDS011;66339;47.262;17.144;2023-09-12T09:44:15;9.55;;;6.55;;
77280;SDS011;66339;47.262;17.144;2023-09-12T09:46:45;11.07;;;6.50;;
77280;SDS011;66339;47.262;17.144;2023-09-12T09:49:16;10.38;;;6.32;;
77280;SDS011;66339;47.262;17.144;2023-09-12T09:51:48;13.13;;;6.12;;
77280;SDS011;66339;47.262;17.144;2023-09-12T09:54:21;16.30;;;7.07;;
77280;SDS011;66339;47.262;17.144;2023-09-12T09:56:53;9.82;;;6.30;;
77280;SDS011;66339;47.262;17.144;2023-09-12T09:59:26;10.27;;;6.10;;
77280;SDS011;66339;47.262;17.144;2023-09-12T10:01:58;14.50;;;6.30;;
77280;SDS011;66339;47.262;17.144;2023-09-12T10:04:28;9.15;;;6.43;;
77280;SDS011;66339;47.262;17.144;2023-09-12T10:07:10;9.98;;;6.25;;
77280;SDS011;66339;47.262;17.144;2023-09-12T10:09:38;9.80;;;6.00;;
77280;SDS011;66339;47.262;17.144;2023-09-12T10:12:07;12.43;;;6.97;;
77280;SDS011;66339;47.262;17.144;2023-09-12T10:14:37;13.98;;;6.22;;
77280;SDS011;66339;47.262;17.144;2023-09-12T10:17:07;9.68;;;6.15;;
77280;SDS011;66339;47.262;17.144;2023-09-12T10:19:51;9.15;;;5.87;;
77280;SDS011;66339;47.262;17.144;2023-09-12T10:22:27;9.05;;;6.22;;
77280;SDS011;66339;47.262;17.144;2023-09-12T10:25:04;7.95;;;6.65;;
77280;SDS011;66339;47.262;17.144;2023-09-12T10:27:32;11.95;;;5.82;;
77280;SDS011;66339;47.262;17.144;2023-09-12T10:30:03;10.50;;;6.28;;
77280;SDS011;66339;47.262;17.144;2023-09-12T10:32:31;10.30;;;6.12;;
77280;SDS011;66339;47.262;17.144;2023-09-12T10:34:59;9.85;;;6.12;;
77280;SDS011;66339;47.262;17.144;2023-09-12T10:37:33;10.65;;;6.50;;
77280;SDS011;66339;47.262;17.144;2023-09-12T10:40:08;9.95;;;5.65;;
77280;SDS011;66339;47.262;17.144;2023-09-12T10:42:35;9.52;;;6.05;;
77280;SDS011;66339;47.262;17.144;2023-09-12T10:45:03;9.20;;;6.60;;
77280;SDS011;66339;47.262;17.144;2023-09-12T10:47:39;10.40;;;6.53;;
77280;SDS011;66339;47.262;17.144;2023-09-12T10:50:06;9.50;;;6.80;;
77280;SDS011;66339;47.262;17.144;2023-09-12T10:52:34;10.13;;;6.62;;
77280;SDS011;66339;47.262;17.144;2023-09-12T10:55:01;9.35;;;6.70;;
77280;SDS011;66339;47.262;17.144;2023-09-12T10:57:34;14.95;;;7.22;;
77280;SDS011;66339;47.262;17.144;2023-09-12T11:00:21;9.52;;;6.40;;
77280;SDS011;66339;47.262;17.144;2023-09-12T11:02:48;9.30;;;6.28;;
77280;SDS011;66339;47.262;17.144;2023-09-12T11:07:57;10.95;;;6.37;;
77280;SDS011;66339;47.262;17.144;2023-09-12T11:10:31;10.68;;;6.85;;
77280;SDS011;66339;47.262;17.144;2023-09-12T11:13:00;11.50;;;6.37;;
77280;SDS011;66339;47.262;17.144;2023-09-12T11:15:27;9.50;;;6.53;;
77280;SDS011;66339;47.262;17.144;2023-09-12T11:23:34;9.75;;;6.72;;
77280;SDS011;66339;47.262;17.144;2023-09-12T11:26:07;10.25;;;6.00;;
77280;SDS011;66339;47.262;17.144;2023-09-12T11:28:38;11.55;;;6.30;;
77280;SDS011;66339;47.262;17.144;2023-09-12T11:31:08;9.52;;;6.40;;
77280;SDS011;66339;47.262;17.144;2023-09-12T11:33:40;9.13;;;6.47;;
77280;SDS011;66339;47.262;17.144;2023-09-12T11:36:12;11.07;;;6.40;;
77280;SDS011;66339;47.262;17.144;2023-09-12T11:38:40;9.98;;;5.95;;
77280;SDS011;66339;47.262;17.144;2023-09-12T11:41:11;12.25;;;6.75;;
77280;SDS011;66339;47.262;17.144;2023-09-12T11:43:41;8.45;;;6.30;;
77280;SDS011;66339;47.262;17.144;2023-09-12T11:46:10;9.18;;;6.35;;
77280;SDS011;66339;47.262;17.144;2023-09-12T11:48:42;9.10;;;6.40;;
77280;SDS011;66339;47.262;17.144;2023-09-12T11:51:10;9.48;;;6.12;;
77280;SDS011;66339;47.262;17.144;2023-09-12T11:53:40;8.55;;;6.10;;
77280;SDS011;66339;47.262;17.144;2023-09-12T11:56:08;10.50;;;6.78;;
77280;SDS011;66339;47.262;17.144;2023-09-12T11:58:35;9.27;;;6.53;;
77280;SDS011;66339;47.262;17.144;2023-09-12T12:01:05;11.80;;;6.60;;
77280;SDS011;66339;47.262;17.144;2023-09-12T12:03:32;9.52;;;6.35;;
77280;SDS011;66339;47.262;17.144;2023-09-12T12:05:59;7.78;;;5.75;;
77280;SDS011;66339;47.262;17.144;2023-09-12T12:08:34;10.20;;;6.70;;
77280;SDS011;66339;47.262;17.144;2023-09-12T12:11:11;11.10;;;6.20;;
77280;SDS011;66339;47.262;17.144;2023-09-12T12:13:41;9.82;;;6.53;;
77280;SDS011;66339;47.262;17.144;2023-09-12T12:16:17;11.20;;;6.57;;
77280;SDS011;66339;47.262;17.144;2023-09-12T12:18:45;9.13;;;6.20;;
77280;SDS011;66339;47.262;17.144;2023-09-12T12:21:16;9.57;;;6.20;;
77280;SDS011;66339;47.262;17.144;2023-09-12T12:23:57;11.60;;;6.30;;
77280;SDS011;66339;47.262;17.144;2023-09-12T12:26:30;7.53;;;6.10;;
77280;SDS011;66339;47.262;17.144;2023-09-12T12:28:59;10.80;;;5.82;;
77280;SDS011;66339;47.262;17.144;2023-09-12T12:31:27;9.60;;;6.05;;
77280;SDS011;66339;47.262;17.144;2023-09-12T12:33:59;8.80;;;5.70;;
77280;SDS011;66339;47.262;17.144;2023-09-12T12:36:50;14.35;;;6.20;;
77280;SDS011;66339;47.262;17.144;2023-09-12T12:39:31;12.40;;;6.03;;
77280;SDS011;66339;47.262;17.144;2023-09-12T12:42:04;6.68;;;5.72;;
77280;SDS011;66339;47.262;17.144;2023-09-12T12:44:38;8.90;;;5.82;;
77280;SDS011;66339;47.262;17.144;2023-09-12T12:47:23;10.88;;;6.18;;
77280;SDS011;66339;47.262;17.144;2023-09-12T12:49:52;8.82;;;5.80;;
77280;SDS011;66339;47.262;17.144;2023-09-12T12:52:23;8.50;;;5.60;;
77280;SDS011;66339;47.262;17.144;2023-09-12T12:55:03;7.53;;;6.20;;
77280;SDS011;66339;47.262;17.144;2023-09-12T12:57:43;8.35;;;5.75;;
77280;SDS011;66339;47.262;17.144;2023-09-12T13:00:16;9.68;;;5.90;;
77280;SDS011;66339;47.262;17.144;2023-09-12T13:02:48;9.18;;;5.90;;
77280;SDS011;66339;47.262;17.144;2023-09-12T13:05:44;8.32;;;5.80;;
77280;SDS011;66339;47.262;17.144;2023-09-12T13:08:14;9.05;;;5.72;;
77280;SDS011;66339;47.262;17.144;2023-09-12T13:10:52;10.55;;;6.20;;
77280;SDS011;66339;47.262;17.144;2023-09-12T13:13:28;9.65;;;5.72;;
77280;SDS011;66339;47.262;17.144;2023-09-12T13:15:56;9.93;;;6.03;;
77280;SDS011;66339;47.262;17.144;2023-09-12T13:18:26;7.40;;;5.60;;
77280;SDS011;66339;47.262;17.144;2023-09-12T13:21:04;6.43;;;5.50;;
77280;SDS011;66339;47.262;17.144;2023-09-12T13:23:37;13.95;;;5.37;;
77280;SDS011;66339;47.262;17.144;2023-09-12T13:26:29;9.10;;;5.85;;
77280;SDS011;66339;47.262;17.144;2023-09-12T13:29:04;6.95;;;5.40;;
77280;SDS011;66339;47.262;17.144;2023-09-12T13:31:37;9.55;;;6.15;;
77280;SDS011;66339;47.262;17.144;2023-09-12T13:34:09;7.75;;;5.65;;
77280;SDS011;66339;47.262;17.144;2023-09-12T13:39:46;7.45;;;5.53;;
77280;SDS011;66339;47.262;17.144;2023-09-12T13:42:22;6.95;;;5.65;;
77280;SDS011;66339;47.262;17.144;2023-09-12T13:44:59;7.55;;;5.75;;
77280;SDS011;66339;47.262;17.144;2023-09-12T13:47:36;7.20;;;5.70;;
77280;SDS011;66339;47.262;17.144;2023-09-12T13:50:09;8.13;;;5.37;;
77280;SDS011;66339;47.262;17.144;2023-09-12T13:53:02;6.97;;;5.40;;
77280;SDS011;66339;47.262;17.144;2023-09-12T13:55:31;13.65;;;5.43;;
77280;SDS011;66339;47.262;17.144;2023-09-12T13:58:31;6.35;;;5.35;;
77280;SDS011;66339;47.262;17.144;2023-09-12T14:01:06;5.97;;;5.10;;
77280;SDS011;66339;47.262;17.144;2023-09-12T14:04:00;6.85;;;5.50;;
77280;SDS011;66339;47.262;17.144;2023-09-12T14:09:56;6.90;;;5.35;;
77280;SDS011;66339;47.262;17.144;2023-09-12T14:12:25;6.75;;;5.22;;
77280;SDS011;66339;47.262;17.144;2023-09-12T14:15:21;6.95;;;5.00;;
77280;SDS011;66339;47.262;17.144;2023-09-12T14:17:54;7.60;;;5.60;;
77280;SDS011;66339;47.262;17.144;2023-09-12T14:20:47;7.28;;;5.47;;
77280;SDS011;66339;47.262;17.144;2023-09-12T14:23:17;7.62;;;5.35;;
77280;SDS011;66339;47.262;17.144;2023-09-12T14:25:53;6.87;;;5.22;;
77280;SDS011;66339;47.262;17.144;2023-09-12T14:28:59;7.53;;;5.35;;
77280;SDS011;66339;47.262;17.144;2023-09-12T14:31:39;7.00;;;5.57;;
77280;SDS011;66339;47.262;17.144;2023-09-12T14:34:07;5.80;;;5.12;;
77280;SDS011;66339;47.262;17.144;2023-09-12T14:36:53;5.57;;;4.90;;
77280;SDS011;66339;47.262;17.144;2023-09-12T14:39:37;8.32;;;5.90;;
77280;SDS011;66339;47.262;17.144;2023-09-12T14:42:15;6.80;;;5.05;;
77280;SDS011;66339;47.262;17.144;2023-09-12T14:44:52;8.02;;;5.25;;
77280;SDS011;66339;47.262;17.144;2023-09-12T14:47:27;9.38;;;5.40;;
77280;SDS011;66339;47.262;17.144;2023-09-12T14:50:03;8.40;;;5.28;;
77280;SDS011;66339;47.262;17.144;2023-09-12T14:52:31;7.20;;;5.15;;
77280;SDS011;66339;47.262;17.144;2023-09-12T14:55:02;9.02;;;4.82;;
77280;SDS011;66339;47.262;17.144;2023-09-12T14:57:32;8.60;;;5.00;;
77280;SDS011;66339;47.262;17.144;2023-09-12T15:00:02;10.38;;;5.20;;
77280;SDS011;66339;47.262;17.144;2023-09-12T15:02:33;6.57;;;5.28;;
77280;SDS011;66339;47.262;17.144;2023-09-12T15:05:08;7.70;;;5.00;;
77280;SDS011;66339;47.262;17.144;2023-09-12T15:07:50;6.87;;;5.15;;
77280;SDS011;66339;47.262;17.144;2023-09-12T15:10:24;7.65;;;4.80;;
77280;SDS011;66339;47.262;17.144;2023-09-12T15:13:00;6.70;;;5.00;;
77280;SDS011;66339;47.262;17.144;2023-09-12T15:15:35;6.20;;;5.07;;
77280;SDS011;66339;47.262;17.144;2023-09-12T15:18:19;6.30;;;4.72;;
77280;SDS011;66339;47.262;17.144;2023-09-12T15:20:51;6.95;;;4.87;;
77280;SDS011;66339;47.262;17.144;2023-09-12T15:23:24;7.68;;;4.72;;
77280;SDS011;66339;47.262;17.144;2023-09-12T15:25:52;7.30;;;4.57;;
77280;SDS011;66339;47.262;17.144;2023-09-12T15:28:22;8.60;;;4.75;;
77280;SDS011;66339;47.262;17.144;2023-09-12T15:30:52;8.57;;;5.40;;
77280;SDS011;66339;47.262;17.144;2023-09-12T15:33:29;7.07;;;4.72;;
77280;SDS011;66339;47.262;17.144;2023-09-12T15:36:03;8.30;;;4.30;;
77280;SDS011;66339;47.262;17.144;2023-09-12T15:38:38;7.72;;;4.50;;
77280;SDS011;66339;47.262;17.144;2023-09-12T15:41:22;9.20;;;4.47;;
77280;SDS011;66339;47.262;17.144;2023-09-12T15:43:57;8.65;;;4.50;;
77280;SDS011;66339;47.262;17.144;2023-09-12T15:46:30;11.48;;;5.05;;
77280;SDS011;66339;47.262;17.144;2023-09-12T15:49:02;6.12;;;4.78;;
77280;SDS011;66339;47.262;17.144;2023-09-12T15:51:37;7.78;;;4.90;;
77280;SDS011;66339;47.262;17.144;2023-09-12T15:54:07;5.90;;;4.97;;
77280;SDS011;66339;47.262;17.144;2023-09-12T15:57:06;5.95;;;4.72;;
77280;SDS011;66339;47.262;17.144;2023-09-12T15:59:51;5.70;;;4.53;;
77280;SDS011;66339;47.262;17.144;2023-09-12T16:02:42;8.50;;;5.00;;
77280;SDS011;66339;47.262;17.144;2023-09-12T16:05:18;9.10;;;4.80;;
77280;SDS011;66339;47.262;17.144;2023-09-12T16:08:01;12.05;;;4.72;;
77280;SDS011;66339;47.262;17.144;2023-09-12T16:10:34;6.32;;;4.93;;
77280;SDS011;66339;47.262;17.144;2023-09-12T16:13:06;13.40;;;4.87;;
77280;SDS011;66339;47.262;17.144;2023-09-12T16:15:43;10.85;;;4.90;;
77280;SDS011;66339;47.262;17.144;2023-09-12T16:18:11;14.32;;;5.35;;
77280;SDS011;66339;47.262;17.144;2023-09-12T16:20:38;10.02;;;4.65;;
77280;SDS011;66339;47.262;17.144;2023-09-12T16:23:12;9.70;;;4.65;;
77280;SDS011;66339;47.262;17.144;2023-09-12T16:25:43;8.57;;;4.85;;
77280;SDS011;66339;47.262;17.144;2023-09-12T16:28:21;12.50;;;4.65;;
77280;SDS011;66339;47.262;17.144;2023-09-12T16:40:42;8.90;;;5.22;;
77280;SDS011;66339;47.262;17.144;2023-09-12T16:43:09;9.98;;;4.93;;
77280;SDS011;66339;47.262;17.144;2023-09-12T16:45:43;10.75;;;5.30;;
77280;SDS011;66339;47.262;17.144;2023-09-12T16:48:17;10.35;;;5.70;;
77280;SDS011;66339;47.262;17.144;2023-09-12T16:50:53;10.13;;;5.40;;
77280;SDS011;66339;47.262;17.144;2023-09-12T16:53:35;13.65;;;5.22;;
77280;SDS011;66339;47.262;17.144;2023-09-12T16:56:14;11.65;;;5.20;;
77280;SDS011;66339;47.262;17.144;2023-09-12T16:59:09;8.13;;;5.37;;
77280;SDS011;66339;47.262;17.144;2023-09-12T17:01:43;14.15;;;5.22;;
77280;SDS011;66339;47.262;17.144;2023-09-12T17:04:13;13.65;;;5.75;;
77280;SDS011;66339;47.262;17.144;2023-09-12T17:06:53;8.45;;;5.20;;
77280;SDS011;66339;47.262;17.144;2023-09-12T17:09:50;8.38;;;5.15;;
77280;SDS011;66339;47.262;17.144;2023-09-12T17:12:35;9.15;;;5.22;;
77280;SDS011;66339;47.262;17.144;2023-09-12T17:15:08;7.80;;;5.30;;
77280;SDS011;66339;47.262;17.144;2023-09-12T17:17:38;12.48;;;5.18;;
77280;SDS011;66339;47.262;17.144;2023-09-12T17:20:23;10.90;;;5.10;;
77280;SDS011;66339;47.262;17.144;2023-09-12T17:23:10;10.43;;;5.25;;
77280;SDS011;66339;47.262;17.144;2023-09-12T17:25:47;11.15;;;5.40;;
77280;SDS011;66339;47.262;17.144;2023-09-12T17:28:19;7.47;;;5.00;;
77280;SDS011;66339;47.262;17.144;2023-09-12T17:30:49;13.45;;;5.50;;
77280;SDS011;66339;47.262;17.144;2023-09-12T17:33:30;10.07;;;5.22;;
77280;SDS011;66339;47.262;17.144;2023-09-12T17:36:11;8.85;;;5.28;;
77280;SDS011;66339;47.262;17.144;2023-09-12T17:38:42;8.82;;;4.95;;
77280;SDS011;66339;47.262;17.144;2023-09-12T17:41:20;8.38;;;5.20;;
77280;SDS011;66339;47.262;17.144;2023-09-12T17:43:52;11.45;;;5.68;;
77280;SDS011;66339;47.262;17.144;2023-09-12T17:46:28;10.20;;;5.72;;
77280;SDS011;66339;47.262;17.144;2023-09-12T17:49:15;10.65;;;6.12;;
77280;SDS011;66339;47.262;17.144;2023-09-12T17:51:46;11.45;;;6.53;;
77280;SDS011;66339;47.262;17.144;2023-09-12T17:54:38;10.13;;;6.10;;
77280;SDS011;66339;47.262;17.144;2023-09-12T17:57:29;10.30;;;5.90;;
77280;SDS011;66339;47.262;17.144;2023-09-12T18:00:02;12.82;;;7.18;;
77280;SDS011;66339;47.262;17.144;2023-09-12T18:02:42;14.48;;;6.90;;
77280;SDS011;66339;47.262;17.144;2023-09-12T18:05:14;12.48;;;6.22;;
77280;SDS011;66339;47.262;17.144;2023-09-12T18:07:51;10.60;;;6.03;;
77280;SDS011;66339;47.262;17.144;2023-09-12T18:10:28;11.60;;;6.50;;
77280;SDS011;66339;47.262;17.144;2023-09-12T18:31:27;15.60;;;6.47;;
77280;SDS011;66339;47.262;17.144;2023-09-12T18:46:50;10.98;;;6.57;;
77280;SDS011;66339;47.262;17.144;2023-09-12T18:49:19;10.55;;;6.62;;
77280;SDS011;66339;47.262;17.144;2023-09-12T18:54:35;11.80;;;6.90;;